Buckland, AK

7:59 PM AKDT on July 23, 2014 (GMT -0800)
Buckland (PABL) Elev 30 ft | 65.98 °N, 161.15 °W | Change Station

Current weather conditions updated 3 minutes ago

Overcast
Overcast
48 °F
Feels Like 48 °F
N
13
Wind Variable Wind from WNW
Gusts 17 mph

Tomorrow is forecast to be Cooler than today.

Today
High -- | Low -- °F
--% Chance of Precip.
Yesterday
High -- | Low -- °F
Precip. -- in
4:55 AM 0:43 AM
Waning Crescent, 7% visible
Pressure 29.69 in
Visibility 7.0 miles
Clouds Mostly Cloudy 1200 ft
Mostly Cloudy 1700 ft
Overcast 2700 ft
Dew Point 45 °F
Humidity 87%
Rainfall 0.00 in
Snow Depth Not available.
UV 1 out of 12
Pollen Not available.
Air Quality Not available.
Flu Activity Not available.
METAR PABL 240356Z AUTO 29011G15KT 7SM BKN012 BKN017 OVC027 09/07 A2969 RMK AO1 WSHFT 53

More Conditions Fewer Conditions

Pressure 29.69 in
Visibility 7.0 miles
Clouds Mostly Cloudy 1200 ft
Mostly Cloudy 1700 ft
Overcast 2700 ft
Dew Point 45 °F
Humidity 87%
Rainfall 0.00 in
Snow Depth Not available.
UV 1 out of 12
Pollen Not available.
Air Quality Not available.
Flu Activity Not available.
METAR PABL 240356Z AUTO 29011G15KT 7SM BKN012 BKN017 OVC027 09/07 A2969 RMK AO1 WSHFT 53

More Conditions Fewer Conditions

10-Day Weather Forecast

Almanac

Astronomy

Jul. 23, 2014 Rise Set
Actual Time 4:55 AM AKDT 12:43 AM AKDT
Civil Twilight 3:23 AM AKDT 2:18 AM AKDT
Nautical Twilight Sun does not rise Sun does not rise
Astronomical Twilight Sun does not rise Sun does not rise
Moon 2:45 AM AKDT (7/23) 10:00 PM AKDT (7/23)
Length of Visible Light 22h 55m
Length of Day
19h 47m
Tomorrow will be 8m 6s shorter.
Waning Crescent, 7% of the Moon is Illuminated
Today
Waning Crescent
Jul 26
New
Aug 3
First Quarter
Aug 10
Full
Aug 17
Last Quarter

Today's Extremes

State Highs State Lows

Community

WunderPhotos

Upload Photos

1,736,891 photos uploaded!

Nearby

Snow Depth

Station Depth Elevation
Rocky Point 2 in 500 ft
Gobblers Knob 0 in 2030 ft
Coldfoot 1 in 1040 ft
Atigun Pass 0 in 4800 ft
Imnaviat Creek 0 in 3050 ft

Earthquake Activity

City Distance Mag. Time & Date
No recent earthquake activity has been reported nearby.
Minimum magnitude displayed is 2.5.

Coastal Water Temperatures

Place Temperature
No Stations Reporting

Nearby Weather Stations

Station Location Temp. Dew Point Humidity Wind Precip. Elev Updated Type
RAWS BUCKLAND UPLANDS AK, Buckland, AK 52 °F 46 °F 80% SSW  at  13 mph 0.00 in / hr 399 ft 7:21 PM AKDT MADIS

Show More Stations Show Fewer Stations